Aviation Digital Data Service (ADDS)

Output produced by TAFs form (2030 UTC 27 February 2017)
found at http://aviationweather.gov/adds/tafs/
 
KGUP 271754Z 2718/2818 22015G25KT P6SM BKN035 
     FM271900 24025G35KT P6SM BKN040 
     FM280200 23015KT P6SM VCSH OVC050 
     TEMPO 2802/2806 5SM -RA OVC025 
     FM280600 22020G30KT 4SM -SN BR OVC015 
     FM281500 24018G30KT 5SM -SNRA BR OVC020